ADDS METAR Data INFO
IDs: Format: Raw Decoded Include TAF

Data at: 1140 UTC 17 Jul 2018

KRMN 171135Z AUTO 22004KT 10SM CLR 25/25 A2994 RMK AO2 T02510247
KRMN 171115Z AUTO 00000KT 10SM CLR 25/25 A2994 RMK AO2 LTG DSNT N T02500246
KRMN 171055Z AUTO 21004KT 10SM CLR 25/25 A2994 RMK AO2 LTG DSNT N T02480245
KRMN 171035Z AUTO 00000KT 10SM CLR 24/24 A2994 RMK AO2 T02410241
KRMN 171015Z AUTO 20003KT 10SM CLR 24/24 A2994 RMK AO2 LTG DSNT NW T02360236
KRMN 170955Z AUTO 18003KT 10SM CLR 24/24 A2994 RMK AO2 T02360236
KRMN 170935Z AUTO 18003KT 10SM CLR 24/24 A2994 RMK AO2 LTG DSNT N AND NW T02360236
KRMN 170915Z AUTO 00000KT 10SM CLR 24/24 A2994 RMK AO2 LTG DSNT NW T02360236
KRMN 170855Z AUTO 00000KT 10SM CLR 24/24 A2994 RMK AO2 LTG DSNT SE AND S T02370237
KRMN 170835Z AUTO 17003KT 10SM CLR 24/24 A2995 RMK AO2 T02380238
KRMN 170815Z AUTO 00000KT 10SM CLR 24/24 A2995 RMK AO2 T02360236
KRMN 170755Z AUTO 00000KT 10SM CLR 24/24 A2995 RMK AO2 T02360236
KRMN 170735Z AUTO 00000KT 10SM CLR 23/23 A2996 RMK AO2 T02330233
KRMN 170715Z AUTO 00000KT 10SM CLR 23/23 A2996 RMK AO2 T02320232
KRMN 170655Z AUTO 00000KT 10SM CLR 23/23 A2996 RMK AO2 T02310231
KRMN 170635Z AUTO 00000KT 10SM CLR 23/23 A2996 RMK AO2 T02290229
KRMN 170615Z AUTO 00000KT 10SM CLR 23/23 A2997 RMK AO2 T02310231
KRMN 170555Z AUTO 00000KT 10SM CLR 24/24 A2997 RMK AO2 T02360236 10272 20228 403510220
KRMN 170535Z AUTO 18003KT 10SM CLR 24/24 A2997 RMK AO2 T02420241
KRMN 170515Z AUTO 00000KT 10SM CLR 24/24 A2997 RMK AO2 T02410240
KRMN 170455Z AUTO 16003KT 10SM CLR 24/24 A2997 RMK AO2 T02390239
KRMN 170435Z AUTO 00000KT 10SM CLR 24/24 A2998 RMK AO2 T02410237
KRMN 170415Z AUTO 00000KT 10SM CLR 24/24 A2998 RMK AO2 T02360236
KRMN 170355Z AUTO 00000KT 10SM CLR 23/23 A2998 RMK AO2 T02310231
KRMN 170335Z AUTO 00000KT 10SM CLR 23/23 A2999 RMK AO2 T02310231
KRMN 170315Z AUTO 00000KT 10SM CLR 24/24 A2999 RMK AO2 T02360236
KRMN 170255Z AUTO 00000KT 10SM CLR 23/23 A2999 RMK AO2 T02310231
KRMN 170235Z AUTO 00000KT 10SM CLR 24/24 A2999 RMK AO2 T02420235
KRMN 170215Z AUTO 00000KT 10SM CLR 24/24 A2999 RMK AO2 T02360236
KRMN 170155Z AUTO 00000KT 10SM CLR 24/24 A2998 RMK AO2 T02370237
KRMN 170135Z AUTO 00000KT 10SM CLR 25/22 A2998 RMK AO2 T02510224
KRMN 170115Z AUTO 00000KT 10SM CLR 25/22 A2998 RMK AO2 T02510224
KRMN 170055Z AUTO 00000KT 10SM CLR 26/22 A2997 RMK AO2 T02550217
KRMN 170035Z AUTO 15003KT 10SM CLR 26/21 A2997 RMK AO2 T02630213
KRMN 170015Z AUTO 17003KT 10SM CLR 27/21 A2997 RMK AO2 T02700211
KRMN 162355Z AUTO 00000KT 10SM CLR 27/21 A2997 RMK AO2 T02730210 10351 20273
KRMN 162335Z AUTO 00000KT 10SM CLR 28/21 A2997 RMK AO2 LTG DSNT SE T02760207
KRMN 162315Z AUTO 00000KT 10SM CLR 28/20 A2997 RMK AO2 LTG DSNT S T02800204
KRMN 162255Z AUTO 23006KT 10SM CLR 28/20 A2997 RMK AO2 LTG DSNT S T02780202
KRMN 162235Z AUTO 23004KT 10SM VCTS SCT055 28/21 A2999 RMK AO2 T02770210
KRMN 162215Z AUTO 25006KT 10SM SCT055 28/22 A2999 RMK AO2 T02760223
KRMN 162155Z AUTO 00000KT 10SM VCTS CLR 28/22 A2998 RMK AO2 LTG DSNT NE SW AND W T02750217
KRMN 162135Z AUTO 29005KT 10SM CLR 28/22 A2998 RMK AO2 LTG DSNT SW AND W T02800217
KRMN 162115Z AUTO 05003KT 10SM SCT120 28/21 A2998 RMK AO2 LTG DSNT W T02820212
KRMN 162055Z AUTO 00000KT 10SM CLR 29/21 A2999 RMK AO2 LTG DSNT N AND W T02850210
KRMN 162035Z AUTO 31008KT 10SM TS CLR 29/22 A2998 RMK AO2 LTG DSNT W THRU NE T02930219
KRMN 162015Z AUTO 22004KT 10SM VCTS SCT110 32/20 A2997 RMK AO2 LTG DSNT W THRU NE T03210202
KRMN 161955Z AUTO 21006KT 10SM SCT060 SCT085 SCT110 33/20 A2997 RMK AO2 LTG DSNT N AND NW T03340197
KRMN 161935Z AUTO 20005KT 10SM SCT060 SCT085 SCT110 34/21 A2997 RMK AO2 LTG DSNT W THRU N T03400211
KRMN 161920Z AUTO 16006KT 10SM SCT050 SCT060 SCT080 34/21 A2997 RMK AO2 LTG DSNT W AND NW T03380213
KRMN 161855Z AUTO 17007KT 10SM SCT050 BKN055 BKN075 34/22 A2999 RMK AO2 T03380219
KRMN 161835Z AUTO 18005KT 10SM SCT048 SCT055 BKN075 35/22 A3000 RMK AO2 T03480222
KRMN 161815Z AUTO 20004KT 10SM SCT046 BKN060 BKN080 35/22 A3000 RMK AO2 T03470221
KRMN 161755Z AUTO 18006KT 10SM SCT047 35/22 A3001 RMK AO2 LTG DSNT NW T03510221 10351 20237
KRMN 161735Z AUTO 14005KT 10SM SCT041 SCT048 34/22 A3002 RMK AO2 T03350218
KRMN 161715Z AUTO 18006KT 10SM CLR 34/23 A3002 RMK AO2 T03400227
KRMN 161655Z AUTO 15006KT 10SM CLR 34/23 A3003 RMK AO2 T03370231
KRMN 161635Z AUTO 16004KT 10SM CLR 33/23 A3004 RMK AO2 T03310234
KRMN 161615Z AUTO 13005KT 10SM CLR 33/24 A3004 RMK AO2 T03300237
KRMN 161555Z AUTO 18003KT 10SM CLR 32/24 A3004 RMK AO2 T03170241
KRMN 161535Z AUTO 31003KT 10SM CLR 31/24 A3004 RMK AO2 T03070243
KRMN 161515Z AUTO 00000KT 10SM CLR 30/25 A3004 RMK AO2 T03010248
KRMN 161455Z AUTO 00000KT 10SM CLR 29/24 A3005 RMK AO2 T02940244
KRMN 161435Z AUTO 00000KT 10SM CLR 29/24 A3005 RMK AO2 T02880244
KRMN 161415Z AUTO 00000KT 10SM CLR 28/25 A3005 RMK AO2 T02810245
KRMN 161355Z AUTO 17003KT 10SM CLR 28/24 A3005 RMK AO2 T02810243
KRMN 161335Z AUTO 00000KT 10SM CLR 28/26 A3005 RMK AO2 T02760256
KRMN 161315Z AUTO 21003KT 10SM CLR 27/26 A3005 RMK AO2 T02700257
KRMN 161255Z AUTO 18003KT 10SM CLR 26/26 A3005 RMK AO2 T02620256
KRMN 161235Z AUTO 14003KT 10SM CLR 26/26 A3005 RMK AO2 T02600256
KRMN 161215Z AUTO 00000KT 10SM CLR 25/25 A3005 RMK AO2 T02510251
KRMN 161155Z AUTO 00000KT 7SM CLR 24/24 A3006 RMK AO2 70001 T02360236 10236 20220
KRMN 161135Z AUTO 00000KT 4SM BR CLR 23/23 A3005 RMK AO2 T02320232
KRMN 161115Z AUTO 00000KT 4SM BR CLR 23/23 A3005 RMK AO2 T02310231
KRMN 161055Z AUTO 00000KT 3SM BR CLR 23/23 A3005 RMK AO2 T02250225
KRMN 161035Z AUTO 00000KT 4SM BR CLR 22/22 A3005 RMK AO2 T02230223
KRMN 161015Z AUTO 00000KT 1 1/4SM BR VV007 22/22 A3005 RMK AO2 T02200220
KRMN 160955Z AUTO 00000KT 2SM BR CLR 23/23 A3005 RMK AO2 T02250225
KRMN 160935Z AUTO 00000KT 1 3/4SM BR VV007 22/22 A3005 RMK AO2 T02210221
KRMN 160915Z AUTO 00000KT 1 1/4SM BR VV007 23/23 A3005 RMK AO2 T02250225
KRMN 160855Z AUTO 00000KT 3SM BR CLR 23/23 A3004 RMK AO2 T02250225
KRMN 160835Z AUTO 00000KT 4SM BR CLR 23/23 A3004 RMK AO2 T02260226
KRMN 160815Z AUTO 00000KT 7SM CLR 23/23 A3004 RMK AO2 T02300230
KRMN 160755Z AUTO 00000KT 2 1/2SM BR CLR 23/23 A3004 RMK AO2 T02310231
KRMN 160735Z AUTO 00000KT 3SM BR CLR 23/23 A3004 RMK AO2 T02300230
KRMN 160715Z AUTO 00000KT 4SM BR CLR 23/23 A3004 RMK AO2 T02310231
KRMN 160655Z AUTO 00000KT 1 1/4SM BR VV007 23/23 A3005 RMK AO2 T02290229
KRMN 160635Z AUTO 00000KT 3SM BR CLR 23/23 A3005 RMK AO2 LTG DSNT SW T02310231
KRMN 160615Z AUTO 00000KT 5SM BR CLR 23/23 A3005 RMK AO2 T02310231
KRMN 160555Z AUTO 00000KT 4SM BR CLR 23/23 A3006 RMK AO2 60001 T02310231 10273 20231 403220193
KRMN 160535Z AUTO 00000KT 2 1/2SM BR CLR 23/23 A3006 RMK AO2 T02320232
KRMN 160515Z AUTO 00000KT 3SM BR CLR 24/24 A3005 RMK AO2 T02360236
KRMN 160455Z AUTO 00000KT 7SM CLR 24/24 A3005 RMK AO2 T02360236
KRMN 160435Z AUTO 00000KT 4SM BR CLR 24/24 A3006 RMK AO2 T02350235
KRMN 160415Z AUTO 00000KT 1 3/4SM BR VV007 24/24 A3006 RMK AO2 T02370237
KRMN 160355Z AUTO 00000KT 3SM BR CLR 24/24 A3005 RMK AO2 T02410241
KRMN 160335Z AUTO 00000KT 4SM BR CLR 24/24 A3005 RMK AO2 T02400240
KRMN 160315Z AUTO 00000KT 5SM BR CLR 24/24 A3006 RMK AO2 T02420242
KRMN 160255Z AUTO 00000KT 2 1/2SM BR CLR 24/24 A3005 RMK AO2 60001 T02410241
KRMN 160235Z AUTO 00000KT 4SM BR CLR 24/24 A3005 RMK AO2 T02410241
KRMN 160215Z AUTO 00000KT 5SM BR CLR 24/24 A3005 RMK AO2 T02410241
KRMN 160155Z AUTO 00000KT 7SM -DZ CLR 24/24 A3005 RMK AO2 P0001 T02410241
KRMN 160135Z AUTO 00000KT 7SM -RA CLR 25/25 A3005 RMK AO2 T02450245
KRMN 160115Z AUTO 00000KT 7SM -RA BKN060 BKN080 25/25 A3005 RMK AO2 T02510251
KRMN 160055Z AUTO 00000KT 10SM -RA BKN060 BKN070 BKN085 25/25 A3005 RMK AO2 T02510251
KRMN 160035Z AUTO 31004KT 10SM -DZ CLR 25/25 A3005 RMK AO2 LTG DSNT SW T02510251
KRMN 160015Z AUTO 29003KT 10SM -RA SCT045 SCT060 SCT070 26/26 A3004 RMK AO2 T02580255
KRMN 152355Z AUTO 35005KT 10SM SCT070 SCT085 SCT110 27/24 A3005 RMK AO2 LTG DSNT NW T02740237 10322 20274